sensor_id;sensor_type;location;lat;lon;timestamp;P1;durP1;ratioP1;P2;durP2;ratioP2
75730;SDS011;64350;47.450;19.124;2023-02-27T05:34:22;10.77;;;2.60;;
75730;SDS011;64350;47.450;19.124;2023-02-27T05:36:56;7.07;;;3.00;;
75730;SDS011;64350;47.450;19.124;2023-02-27T05:39:26;6.93;;;3.15;;
75730;SDS011;64350;47.450;19.124;2023-02-27T05:42:05;9.53;;;2.90;;
75730;SDS011;64350;47.450;19.124;2023-02-27T05:44:34;9.45;;;2.75;;
75730;SDS011;64350;47.450;19.124;2023-02-27T05:47:12;6.35;;;2.85;;
75730;SDS011;64350;47.450;19.124;2023-02-27T05:49:46;6.50;;;2.70;;
75730;SDS011;64350;47.450;19.124;2023-02-27T05:52:15;6.30;;;2.85;;
75730;SDS011;64350;47.450;19.124;2023-02-27T05:57:22;7.80;;;3.17;;
75730;SDS011;64350;47.450;19.124;2023-02-27T05:59:58;7.45;;;2.90;;
75730;SDS011;64350;47.450;19.124;2023-02-27T06:02:29;6.32;;;2.47;;
75730;SDS011;64350;47.450;19.124;2023-02-27T06:04:54;5.90;;;2.97;;
75730;SDS011;64350;47.450;19.124;2023-02-27T06:07:21;5.47;;;2.53;;
75730;SDS011;64350;47.450;19.124;2023-02-27T06:09:46;9.03;;;2.60;;
75730;SDS011;64350;47.450;19.124;2023-02-27T06:12:12;7.75;;;3.00;;
75730;SDS011;64350;47.450;19.124;2023-02-27T06:14:38;7.30;;;3.00;;
75730;SDS011;64350;47.450;19.124;2023-02-27T06:17:03;5.53;;;2.93;;
75730;SDS011;64350;47.450;19.124;2023-02-27T06:19:28;11.63;;;3.40;;
75730;SDS011;64350;47.450;19.124;2023-02-27T06:21:54;7.30;;;2.80;;
75730;SDS011;64350;47.450;19.124;2023-02-27T06:24:19;6.97;;;2.87;;
75730;SDS011;64350;47.450;19.124;2023-02-27T06:26:45;8.87;;;3.27;;
75730;SDS011;64350;47.450;19.124;2023-02-27T06:29:12;7.62;;;2.92;;
75730;SDS011;64350;47.450;19.124;2023-02-27T06:31:37;9.80;;;3.30;;
75730;SDS011;64350;47.450;19.124;2023-02-27T06:34:03;8.03;;;2.93;;
75730;SDS011;64350;47.450;19.124;2023-02-27T06:36:28;8.20;;;3.00;;
75730;SDS011;64350;47.450;19.124;2023-02-27T06:38:54;7.65;;;2.83;;
75730;SDS011;64350;47.450;19.124;2023-02-27T06:41:19;7.10;;;3.17;;
75730;SDS011;64350;47.450;19.124;2023-02-27T06:43:45;7.37;;;2.70;;
75730;SDS011;64350;47.450;19.124;2023-02-27T06:46:10;6.93;;;2.78;;
75730;SDS011;64350;47.450;19.124;2023-02-27T06:48:35;8.60;;;2.90;;
75730;SDS011;64350;47.450;19.124;2023-02-27T06:51:01;11.57;;;3.60;;
75730;SDS011;64350;47.450;19.124;2023-02-27T06:53:27;7.95;;;2.70;;
75730;SDS011;64350;47.450;19.124;2023-02-27T06:55:53;7.33;;;3.17;;
75730;SDS011;64350;47.450;19.124;2023-02-27T06:58:18;6.25;;;2.53;;
75730;SDS011;64350;47.450;19.124;2023-02-27T07:00:44;7.57;;;2.73;;
75730;SDS011;64350;47.450;19.124;2023-02-27T07:03:10;9.07;;;3.40;;
75730;SDS011;64350;47.450;19.124;2023-02-27T07:05:36;7.22;;;2.75;;
75730;SDS011;64350;47.450;19.124;2023-02-27T07:08:01;8.23;;;3.00;;
75730;SDS011;64350;47.450;19.124;2023-02-27T07:10:28;9.00;;;2.83;;
75730;SDS011;64350;47.450;19.124;2023-02-27T07:12:54;8.32;;;3.35;;
75730;SDS011;64350;47.450;19.124;2023-02-27T07:15:19;8.30;;;2.70;;
75730;SDS011;64350;47.450;19.124;2023-02-27T07:17:45;14.27;;;3.20;;
75730;SDS011;64350;47.450;19.124;2023-02-27T07:20:10;6.67;;;2.70;;
75730;SDS011;64350;47.450;19.124;2023-02-27T07:22:36;5.68;;;2.55;;
75730;SDS011;64350;47.450;19.124;2023-02-27T07:25:03;6.70;;;2.77;;
75730;SDS011;64350;47.450;19.124;2023-02-27T07:27:28;8.65;;;2.90;;
75730;SDS011;64350;47.450;19.124;2023-02-27T07:29:54;8.05;;;2.53;;
75730;SDS011;64350;47.450;19.124;2023-02-27T07:32:19;7.10;;;2.33;;
75730;SDS011;64350;47.450;19.124;2023-02-27T07:34:48;6.53;;;2.50;;
75730;SDS011;64350;47.450;19.124;2023-02-27T07:37:13;6.05;;;2.40;;
75730;SDS011;64350;47.450;19.124;2023-02-27T07:39:39;6.47;;;2.10;;
75730;SDS011;64350;47.450;19.124;2023-02-27T07:42:04;6.07;;;2.40;;
75730;SDS011;64350;47.450;19.124;2023-02-27T07:44:30;6.80;;;2.17;;
75730;SDS011;64350;47.450;19.124;2023-02-27T07:46:56;7.07;;;2.60;;
75730;SDS011;64350;47.450;19.124;2023-02-27T07:49:22;5.73;;;2.30;;
75730;SDS011;64350;47.450;19.124;2023-02-27T07:51:47;5.60;;;2.33;;
75730;SDS011;64350;47.450;19.124;2023-02-27T07:54:13;7.33;;;2.50;;
75730;SDS011;64350;47.450;19.124;2023-02-27T07:56:38;7.97;;;2.70;;
75730;SDS011;64350;47.450;19.124;2023-02-27T07:59:03;9.77;;;3.28;;
75730;SDS011;64350;47.450;19.124;2023-02-27T08:01:29;6.10;;;2.50;;
75730;SDS011;64350;47.450;19.124;2023-02-27T08:03:54;7.47;;;2.90;;
75730;SDS011;64350;47.450;19.124;2023-02-27T08:06:20;5.75;;;2.45;;
75730;SDS011;64350;47.450;19.124;2023-02-27T08:08:46;7.70;;;2.37;;
75730;SDS011;64350;47.450;19.124;2023-02-27T08:11:11;6.33;;;2.60;;
75730;SDS011;64350;47.450;19.124;2023-02-27T08:13:37;7.00;;;2.60;;
75730;SDS011;64350;47.450;19.124;2023-02-27T08:16:02;8.23;;;2.47;;
75730;SDS011;64350;47.450;19.124;2023-02-27T08:18:28;7.63;;;3.00;;
75730;SDS011;64350;47.450;19.124;2023-02-27T08:20:54;6.43;;;2.78;;
75730;SDS011;64350;47.450;19.124;2023-02-27T08:23:23;8.45;;;2.58;;
75730;SDS011;64350;47.450;19.124;2023-02-27T08:25:48;8.37;;;2.70;;
75730;SDS011;64350;47.450;19.124;2023-02-27T08:28:14;6.53;;;2.60;;
75730;SDS011;64350;47.450;19.124;2023-02-27T08:30:39;6.93;;;2.37;;
75730;SDS011;64350;47.450;19.124;2023-02-27T08:33:04;6.63;;;2.50;;
75730;SDS011;64350;47.450;19.124;2023-02-27T08:35:30;6.43;;;2.53;;
75730;SDS011;64350;47.450;19.124;2023-02-27T08:37:55;6.30;;;2.40;;
75730;SDS011;64350;47.450;19.124;2023-02-27T08:40:21;6.57;;;2.45;;
75730;SDS011;64350;47.450;19.124;2023-02-27T08:42:46;8.30;;;2.50;;
75730;SDS011;64350;47.450;19.124;2023-02-27T08:45:12;7.07;;;3.00;;
75730;SDS011;64350;47.450;19.124;2023-02-27T08:47:37;8.93;;;2.67;;
75730;SDS011;64350;47.450;19.124;2023-02-27T08:50:03;7.83;;;2.37;;
75730;SDS011;64350;47.450;19.124;2023-02-27T08:52:32;6.30;;;2.67;;
75730;SDS011;64350;47.450;19.124;2023-02-27T08:54:58;6.47;;;2.53;;
75730;SDS011;64350;47.450;19.124;2023-02-27T08:57:23;5.93;;;2.43;;
75730;SDS011;64350;47.450;19.124;2023-02-27T08:59:49;8.57;;;3.20;;
75730;SDS011;64350;47.450;19.124;2023-02-27T09:02:14;6.90;;;2.80;;
75730;SDS011;64350;47.450;19.124;2023-02-27T09:04:39;7.87;;;2.70;;
75730;SDS011;64350;47.450;19.124;2023-02-27T09:07:05;5.80;;;2.70;;
75730;SDS011;64350;47.450;19.124;2023-02-27T09:09:30;6.50;;;2.30;;
75730;SDS011;64350;47.450;19.124;2023-02-27T09:11:56;6.07;;;2.80;;
75730;SDS011;64350;47.450;19.124;2023-02-27T09:14:21;6.03;;;2.50;;
75730;SDS011;64350;47.450;19.124;2023-02-27T09:16:48;6.78;;;3.03;;
75730;SDS011;64350;47.450;19.124;2023-02-27T09:19:13;6.60;;;2.77;;
75730;SDS011;64350;47.450;19.124;2023-02-27T09:21:39;6.57;;;2.77;;
75730;SDS011;64350;47.450;19.124;2023-02-27T09:24:05;6.28;;;2.55;;
75730;SDS011;64350;47.450;19.124;2023-02-27T09:26:31;6.35;;;2.58;;
75730;SDS011;64350;47.450;19.124;2023-02-27T09:28:56;7.53;;;3.13;;
75730;SDS011;64350;47.450;19.124;2023-02-27T09:31:22;6.70;;;3.13;;
75730;SDS011;64350;47.450;19.124;2023-02-27T09:33:47;6.22;;;2.58;;
75730;SDS011;64350;47.450;19.124;2023-02-27T09:36:13;7.60;;;2.97;;
75730;SDS011;64350;47.450;19.124;2023-02-27T09:38:38;6.47;;;2.67;;
75730;SDS011;64350;47.450;19.124;2023-02-27T09:41:04;9.23;;;3.13;;
75730;SDS011;64350;47.450;19.124;2023-02-27T09:46:04;6.07;;;2.93;;
75730;SDS011;64350;47.450;19.124;2023-02-27T09:48:35;6.65;;;2.90;;
75730;SDS011;64350;47.450;19.124;2023-02-27T09:51:05;7.50;;;3.00;;
75730;SDS011;64350;47.450;19.124;2023-02-27T09:56:02;6.07;;;2.65;;
75730;SDS011;64350;47.450;19.124;2023-02-27T09:58:41;7.93;;;3.05;;
75730;SDS011;64350;47.450;19.124;2023-02-27T10:01:20;6.18;;;2.90;;
75730;SDS011;64350;47.450;19.124;2023-02-27T10:12:53;8.63;;;2.60;;
75730;SDS011;64350;47.450;19.124;2023-02-27T10:15:26;7.00;;;2.90;;
75730;SDS011;64350;47.450;19.124;2023-02-27T10:17:55;6.33;;;2.43;;
75730;SDS011;64350;47.450;19.124;2023-02-27T10:20:31;7.45;;;2.85;;
75730;SDS011;64350;47.450;19.124;2023-02-27T10:23:00;5.90;;;2.60;;
75730;SDS011;64350;47.450;19.124;2023-02-27T10:25:29;8.68;;;2.40;;
75730;SDS011;64350;47.450;19.124;2023-02-27T10:27:59;7.93;;;2.60;;
75730;SDS011;64350;47.450;19.124;2023-02-27T10:30:33;7.13;;;2.80;;
75730;SDS011;64350;47.450;19.124;2023-02-27T10:35:31;6.03;;;2.83;;
75730;SDS011;64350;47.450;19.124;2023-02-27T10:37:59;6.50;;;2.87;;
75730;SDS011;64350;47.450;19.124;2023-02-27T10:40:30;9.48;;;3.50;;
75730;SDS011;64350;47.450;19.124;2023-02-27T10:42:56;7.22;;;3.08;;
75730;SDS011;64350;47.450;19.124;2023-02-27T10:45:24;9.03;;;3.70;;
75730;SDS011;64350;47.450;19.124;2023-02-27T10:47:49;7.72;;;3.78;;
75730;SDS011;64350;47.450;19.124;2023-02-27T10:50:22;8.50;;;3.40;;
75730;SDS011;64350;47.450;19.124;2023-02-27T10:53:02;8.00;;;3.97;;
75730;SDS011;64350;47.450;19.124;2023-02-27T10:55:29;8.77;;;3.28;;
75730;SDS011;64350;47.450;19.124;2023-02-27T10:57:57;8.37;;;3.27;;
75730;SDS011;64350;47.450;19.124;2023-02-27T11:03:19;9.38;;;2.75;;
75730;SDS011;64350;47.450;19.124;2023-02-27T11:05:57;6.87;;;2.87;;
75730;SDS011;64350;47.450;19.124;2023-02-27T11:08:26;10.38;;;3.30;;
75730;SDS011;64350;47.450;19.124;2023-02-27T11:11:01;8.10;;;3.07;;
75730;SDS011;64350;47.450;19.124;2023-02-27T11:13:38;6.37;;;3.50;;
75730;SDS011;64350;47.450;19.124;2023-02-27T11:16:18;6.62;;;3.62;;
75730;SDS011;64350;47.450;19.124;2023-02-27T11:18:48;7.57;;;3.47;;
75730;SDS011;64350;47.450;19.124;2023-02-27T11:26:25;12.43;;;3.50;;
75730;SDS011;64350;47.450;19.124;2023-02-27T11:29:33;7.80;;;3.30;;
75730;SDS011;64350;47.450;19.124;2023-02-27T11:31:46;6.90;;;3.28;;
75730;SDS011;64350;47.450;19.124;2023-02-27T11:34:17;7.85;;;2.90;;
75730;SDS011;64350;47.450;19.124;2023-02-27T11:36:46;7.47;;;3.40;;
75730;SDS011;64350;47.450;19.124;2023-02-27T11:39:27;6.40;;;2.90;;
75730;SDS011;64350;47.450;19.124;2023-02-27T11:41:54;6.55;;;3.00;;
75730;SDS011;64350;47.450;19.124;2023-02-27T11:44:23;7.68;;;3.30;;
75730;SDS011;64350;47.450;19.124;2023-02-27T11:46:51;7.85;;;3.35;;
75730;SDS011;64350;47.450;19.124;2023-02-27T11:49:34;7.60;;;3.70;;
75730;SDS011;64350;47.450;19.124;2023-02-27T11:52:16;7.35;;;3.50;;
75730;SDS011;64350;47.450;19.124;2023-02-27T11:54:49;6.90;;;3.33;;
75730;SDS011;64350;47.450;19.124;2023-02-27T11:57:24;7.90;;;3.30;;
75730;SDS011;64350;47.450;19.124;2023-02-27T12:00:36;7.22;;;3.12;;
75730;SDS011;64350;47.450;19.124;2023-02-27T12:07:48;8.63;;;3.60;;
75730;SDS011;64350;47.450;19.124;2023-02-27T12:10:24;9.50;;;3.80;;
75730;SDS011;64350;47.450;19.124;2023-02-27T12:15:18;7.97;;;3.73;;
75730;SDS011;64350;47.450;19.124;2023-02-27T12:23:18;8.47;;;3.80;;
75730;SDS011;64350;47.450;19.124;2023-02-27T12:25:51;6.90;;;3.53;;
75730;SDS011;64350;47.450;19.124;2023-02-27T12:31:24;7.60;;;3.50;;
75730;SDS011;64350;47.450;19.124;2023-02-27T12:33:52;7.22;;;4.07;;
75730;SDS011;64350;47.450;19.124;2023-02-27T12:36:22;13.98;;;4.12;;
75730;SDS011;64350;47.450;19.124;2023-02-27T12:38:48;7.57;;;3.67;;
75730;SDS011;64350;47.450;19.124;2023-02-27T12:41:17;7.93;;;4.00;;
75730;SDS011;64350;47.450;19.124;2023-02-27T12:51:59;9.17;;;4.63;;
75730;SDS011;64350;47.450;19.124;2023-02-27T13:00:11;9.43;;;3.92;;
75730;SDS011;64350;47.450;19.124;2023-02-27T13:06:10;10.13;;;3.50;;
75730;SDS011;64350;47.450;19.124;2023-02-27T13:13:54;8.27;;;3.90;;
75730;SDS011;64350;47.450;19.124;2023-02-27T13:16:30;8.05;;;4.03;;
75730;SDS011;64350;47.450;19.124;2023-02-27T13:19:10;7.33;;;3.60;;
75730;SDS011;64350;47.450;19.124;2023-02-27T13:21:49;8.52;;;3.50;;
75730;SDS011;64350;47.450;19.124;2023-02-27T13:24:22;9.82;;;4.12;;
75730;SDS011;64350;47.450;19.124;2023-02-27T13:27:02;9.10;;;3.87;;
75730;SDS011;64350;47.450;19.124;2023-02-27T13:29:37;8.15;;;4.20;;
75730;SDS011;64350;47.450;19.124;2023-02-27T13:32:24;8.77;;;4.37;;
75730;SDS011;64350;47.450;19.124;2023-02-27T13:35:05;8.18;;;3.58;;
75730;SDS011;64350;47.450;19.124;2023-02-27T13:40:56;8.82;;;3.80;;
75730;SDS011;64350;47.450;19.124;2023-02-27T13:45:59;9.18;;;4.43;;
75730;SDS011;64350;47.450;19.124;2023-02-27T13:50:57;9.13;;;4.00;;
75730;SDS011;64350;47.450;19.124;2023-02-27T13:53:23;9.65;;;4.07;;
75730;SDS011;64350;47.450;19.124;2023-02-27T13:55:52;9.00;;;4.12;;
75730;SDS011;64350;47.450;19.124;2023-02-27T13:58:21;10.13;;;4.20;;
75730;SDS011;64350;47.450;19.124;2023-02-27T14:00:56;10.40;;;4.50;;
75730;SDS011;64350;47.450;19.124;2023-02-27T14:03:24;8.40;;;4.12;;
75730;SDS011;64350;47.450;19.124;2023-02-27T14:05:52;8.00;;;3.40;;
75730;SDS011;64350;47.450;19.124;2023-02-27T14:08:22;8.25;;;3.62;;
75730;SDS011;64350;47.450;19.124;2023-02-27T14:10:59;9.00;;;3.90;;
75730;SDS011;64350;47.450;19.124;2023-02-27T14:16:11;8.73;;;4.03;;
75730;SDS011;64350;47.450;19.124;2023-02-27T14:18:59;9.07;;;4.25;;
75730;SDS011;64350;47.450;19.124;2023-02-27T14:24:39;8.02;;;3.83;;
75730;SDS011;64350;47.450;19.124;2023-02-27T14:27:18;9.70;;;4.03;;
75730;SDS011;64350;47.450;19.124;2023-02-27T14:29:47;9.02;;;4.37;;
75730;SDS011;64350;47.450;19.124;2023-02-27T14:32:19;8.98;;;4.25;;
75730;SDS011;64350;47.450;19.124;2023-02-27T14:34:46;11.40;;;4.00;;
75730;SDS011;64350;47.450;19.124;2023-02-27T14:37:14;8.30;;;3.67;;
75730;SDS011;64350;47.450;19.124;2023-02-27T14:39:41;8.87;;;3.70;;
75730;SDS011;64350;47.450;19.124;2023-02-27T14:44:54;8.23;;;4.18;;
75730;SDS011;64350;47.450;19.124;2023-02-27T14:49:48;9.63;;;4.43;;
75730;SDS011;64350;47.450;19.124;2023-02-27T14:52:24;9.53;;;4.43;;
75730;SDS011;64350;47.450;19.124;2023-02-27T14:54:59;8.33;;;4.10;;
75730;SDS011;64350;47.450;19.124;2023-02-27T14:57:51;9.50;;;3.92;;
75730;SDS011;64350;47.450;19.124;2023-02-27T15:02:53;12.48;;;4.55;;
75730;SDS011;64350;47.450;19.124;2023-02-27T15:05:19;8.63;;;4.17;;
75730;SDS011;64350;47.450;19.124;2023-02-27T15:07:47;8.57;;;3.97;;
75730;SDS011;64350;47.450;19.124;2023-02-27T15:10:17;9.40;;;4.43;;
75730;SDS011;64350;47.450;19.124;2023-02-27T15:12:48;9.15;;;4.18;;
75730;SDS011;64350;47.450;19.124;2023-02-27T15:15:16;9.20;;;4.17;;
75730;SDS011;64350;47.450;19.124;2023-02-27T15:17:43;9.38;;;4.30;;
75730;SDS011;64350;47.450;19.124;2023-02-27T15:20:21;9.15;;;4.18;;
75730;SDS011;64350;47.450;19.124;2023-02-27T15:22:53;9.18;;;3.90;;
75730;SDS011;64350;47.450;19.124;2023-02-27T15:25:31;9.07;;;4.25;;
75730;SDS011;64350;47.450;19.124;2023-02-27T15:28:02;9.50;;;4.20;;
75730;SDS011;64350;47.450;19.124;2023-02-27T15:30:28;10.40;;;4.50;;
75730;SDS011;64350;47.450;19.124;2023-02-27T15:32:54;9.27;;;4.68;;
75730;SDS011;64350;47.450;19.124;2023-02-27T15:35:40;8.63;;;3.87;;
75730;SDS011;64350;47.450;19.124;2023-02-27T15:38:21;10.37;;;4.70;;
75730;SDS011;64350;47.450;19.124;2023-02-27T15:40:48;9.65;;;4.80;;
75730;SDS011;64350;47.450;19.124;2023-02-27T15:43:14;10.07;;;4.07;;
75730;SDS011;64350;47.450;19.124;2023-02-27T15:45:41;10.53;;;4.37;;
75730;SDS011;64350;47.450;19.124;2023-02-27T15:48:08;9.77;;;4.47;;
75730;SDS011;64350;47.450;19.124;2023-02-27T15:50:37;9.05;;;4.22;;
75730;SDS011;64350;47.450;19.124;2023-02-27T15:55:33;11.00;;;4.68;;
75730;SDS011;64350;47.450;19.124;2023-02-27T15:58:01;9.10;;;4.13;;
75730;SDS011;64350;47.450;19.124;2023-02-27T16:00:27;9.65;;;4.43;;
75730;SDS011;64350;47.450;19.124;2023-02-27T16:02:55;10.55;;;4.50;;
75730;SDS011;64350;47.450;19.124;2023-02-27T16:05:34;8.53;;;3.60;;
75730;SDS011;64350;47.450;19.124;2023-02-27T16:08:01;9.63;;;4.20;;
75730;SDS011;64350;47.450;19.124;2023-02-27T16:10:28;8.70;;;4.30;;
75730;SDS011;64350;47.450;19.124;2023-02-27T16:12:59;9.43;;;3.97;;
75730;SDS011;64350;47.450;19.124;2023-02-27T16:15:44;9.18;;;4.05;;
75730;SDS011;64350;47.450;19.124;2023-02-27T16:20:45;8.13;;;4.30;;
75730;SDS011;64350;47.450;19.124;2023-02-27T16:25:38;9.07;;;4.30;;
75730;SDS011;64350;47.450;19.124;2023-02-27T16:28:05;9.75;;;4.53;;
75730;SDS011;64350;47.450;19.124;2023-02-27T16:30:37;12.65;;;4.53;;
75730;SDS011;64350;47.450;19.124;2023-02-27T16:33:03;12.60;;;4.60;;
75730;SDS011;64350;47.450;19.124;2023-02-27T16:35:28;11.38;;;4.62;;
75730;SDS011;64350;47.450;19.124;2023-02-27T16:37:58;12.70;;;5.00;;
75730;SDS011;64350;47.450;19.124;2023-02-27T16:40:25;11.98;;;4.72;;
75730;SDS011;64350;47.450;19.124;2023-02-27T16:42:51;11.25;;;5.07;;
75730;SDS011;64350;47.450;19.124;2023-02-27T16:45:18;10.10;;;4.60;;
75730;SDS011;64350;47.450;19.124;2023-02-27T16:47:49;11.48;;;4.68;;
75730;SDS011;64350;47.450;19.124;2023-02-27T16:50:21;11.40;;;4.65;;
75730;SDS011;64350;47.450;19.124;2023-02-27T16:52:48;10.23;;;4.82;;
75730;SDS011;64350;47.450;19.124;2023-02-27T16:55:14;9.53;;;5.13;;
75730;SDS011;64350;47.450;19.124;2023-02-27T16:57:39;8.07;;;4.22;;
75730;SDS011;64350;47.450;19.124;2023-02-27T17:00:05;11.10;;;5.83;;
75730;SDS011;64350;47.450;19.124;2023-02-27T17:02:31;12.63;;;6.05;;
75730;SDS011;64350;47.450;19.124;2023-02-27T17:04:57;12.70;;;5.70;;
75730;SDS011;64350;47.450;19.124;2023-02-27T17:07:22;15.57;;;6.37;;
75730;SDS011;64350;47.450;19.124;2023-02-27T17:09:48;13.00;;;5.77;;
75730;SDS011;64350;47.450;19.124;2023-02-27T17:12:17;14.93;;;7.43;;
75730;SDS011;64350;47.450;19.124;2023-02-27T17:14:42;14.77;;;6.72;;
75730;SDS011;64350;47.450;19.124;2023-02-27T17:17:08;14.03;;;6.77;;
75730;SDS011;64350;47.450;19.124;2023-02-27T17:19:36;18.50;;;7.03;;
75730;SDS011;64350;47.450;19.124;2023-02-27T17:22:02;16.20;;;8.20;;
75730;SDS011;64350;47.450;19.124;2023-02-27T17:24:27;18.50;;;8.83;;
75730;SDS011;64350;47.450;19.124;2023-02-27T17:26:53;21.30;;;9.40;;
75730;SDS011;64350;47.450;19.124;2023-02-27T17:29:19;20.48;;;9.50;;
75730;SDS011;64350;47.450;19.124;2023-02-27T17:31:48;18.23;;;8.80;;
75730;SDS011;64350;47.450;19.124;2023-02-27T17:34:16;18.42;;;8.55;;
75730;SDS011;64350;47.450;19.124;2023-02-27T17:36:42;17.80;;;8.97;;
75730;SDS011;64350;47.450;19.124;2023-02-27T17:39:09;18.67;;;8.87;;
75730;SDS011;64350;47.450;19.124;2023-02-27T17:41:36;19.23;;;9.27;;
75730;SDS011;64350;47.450;19.124;2023-02-27T17:44:01;22.10;;;9.50;;
75730;SDS011;64350;47.450;19.124;2023-02-27T17:46:28;19.30;;;9.03;;
75730;SDS011;64350;47.450;19.124;2023-02-27T17:48:56;22.25;;;8.73;;
75730;SDS011;64350;47.450;19.124;2023-02-27T17:51:26;18.70;;;9.60;;
75730;SDS011;64350;47.450;19.124;2023-02-27T17:53:52;19.62;;;9.98;;
75730;SDS011;64350;47.450;19.124;2023-02-27T17:56:17;23.07;;;10.00;;
75730;SDS011;64350;47.450;19.124;2023-02-27T17:58:43;21.30;;;9.50;;
75730;SDS011;64350;47.450;19.124;2023-02-27T18:01:13;25.08;;;12.23;;
75730;SDS011;64350;47.450;19.124;2023-02-27T18:03:41;31.02;;;14.15;;
75730;SDS011;64350;47.450;19.124;2023-02-27T18:06:08;33.65;;;13.43;;
75730;SDS011;64350;47.450;19.124;2023-02-27T18:08:33;28.30;;;13.60;;
75730;SDS011;64350;47.450;19.124;2023-02-27T18:10:59;21.80;;;9.97;;
75730;SDS011;64350;47.450;19.124;2023-02-27T18:13:25;19.90;;;9.77;;
75730;SDS011;64350;47.450;19.124;2023-02-27T18:15:51;15.82;;;7.75;;
75730;SDS011;64350;47.450;19.124;2023-02-27T18:18:17;12.25;;;6.15;;
75730;SDS011;64350;47.450;19.124;2023-02-27T18:20:44;18.40;;;6.95;;
75730;SDS011;64350;47.450;19.124;2023-02-27T18:23:09;15.20;;;6.73;;
75730;SDS011;64350;47.450;19.124;2023-02-27T18:25:38;14.30;;;6.30;;
75730;SDS011;64350;47.450;19.124;2023-02-27T18:28:03;11.02;;;4.37;;
75730;SDS011;64350;47.450;19.124;2023-02-27T18:30:30;15.93;;;6.87;;
75730;SDS011;64350;47.450;19.124;2023-02-27T18:32:57;12.10;;;5.07;;
75730;SDS011;64350;47.450;19.124;2023-02-27T18:35:24;10.80;;;5.37;;
75730;SDS011;64350;47.450;19.124;2023-02-27T18:37:50;11.38;;;5.05;;
75730;SDS011;64350;47.450;19.124;2023-02-27T18:40:15;17.37;;;6.07;;
75730;SDS011;64350;47.450;19.124;2023-02-27T18:42:41;12.18;;;5.55;;
75730;SDS011;64350;47.450;19.124;2023-02-27T18:45:07;13.93;;;6.60;;
75730;SDS011;64350;47.450;19.124;2023-02-27T18:47:33;12.20;;;5.28;;
75730;SDS011;64350;47.450;19.124;2023-02-27T18:49:59;12.83;;;5.73;;
75730;SDS011;64350;47.450;19.124;2023-02-27T18:52:24;12.20;;;4.35;;
75730;SDS011;64350;47.450;19.124;2023-02-27T18:54:50;13.37;;;5.53;;
75730;SDS011;64350;47.450;19.124;2023-02-27T18:57:15;10.90;;;4.83;;
75730;SDS011;64350;47.450;19.124;2023-02-27T18:59:41;11.70;;;3.87;;
75730;SDS011;64350;47.450;19.124;2023-02-27T19:02:14;9.73;;;4.57;;
75730;SDS011;64350;47.450;19.124;2023-02-27T19:04:40;11.85;;;4.93;;
75730;SDS011;64350;47.450;19.124;2023-02-27T19:07:06;12.20;;;5.65;;
75730;SDS011;64350;47.450;19.124;2023-02-27T19:09:32;10.73;;;3.57;;
75730;SDS011;64350;47.450;19.124;2023-02-27T19:11:58;13.40;;;5.28;;
75730;SDS011;64350;47.450;19.124;2023-02-27T19:14:24;9.73;;;3.37;;
75730;SDS011;64350;47.450;19.124;2023-02-27T19:16:49;5.43;;;2.63;;
75730;SDS011;64350;47.450;19.124;2023-02-27T19:19:15;10.27;;;4.27;;
75730;SDS011;64350;47.450;19.124;2023-02-27T19:21:41;11.80;;;4.70;;
75730;SDS011;64350;47.450;19.124;2023-02-27T19:24:08;11.27;;;4.43;;
75730;SDS011;64350;47.450;19.124;2023-02-27T19:26:35;10.10;;;4.45;;
75730;SDS011;64350;47.450;19.124;2023-02-27T19:29:00;7.53;;;3.97;;
75730;SDS011;64350;47.450;19.124;2023-02-27T19:31:26;6.80;;;2.62;;
75730;SDS011;64350;47.450;19.124;2023-02-27T19:33:52;11.30;;;4.77;;
75730;SDS011;64350;47.450;19.124;2023-02-27T19:36:18;13.52;;;5.20;;
75730;SDS011;64350;47.450;19.124;2023-02-27T19:38:46;10.60;;;4.07;;
75730;SDS011;64350;47.450;19.124;2023-02-27T19:41:13;9.00;;;4.75;;
75730;SDS011;64350;47.450;19.124;2023-02-27T19:43:40;14.48;;;5.62;;
75730;SDS011;64350;47.450;19.124;2023-02-27T19:46:07;11.10;;;5.40;;
75730;SDS011;64350;47.450;19.124;2023-02-27T19:48:37;11.52;;;5.75;;
75730;SDS011;64350;47.450;19.124;2023-02-27T19:51:03;18.87;;;7.40;;
75730;SDS011;64350;47.450;19.124;2023-02-27T19:53:30;19.52;;;7.30;;
75730;SDS011;64350;47.450;19.124;2023-02-27T19:55:57;13.97;;;5.33;;
75730;SDS011;64350;47.450;19.124;2023-02-27T19:58:23;6.47;;;2.78;;
75730;SDS011;64350;47.450;19.124;2023-02-27T20:00:49;9.37;;;4.17;;
75730;SDS011;64350;47.450;19.124;2023-02-27T20:03:15;12.40;;;5.03;;
75730;SDS011;64350;47.450;19.124;2023-02-27T20:05:41;11.73;;;5.80;;
75730;SDS011;64350;47.450;19.124;2023-02-27T20:08:06;9.27;;;4.50;;
75730;SDS011;64350;47.450;19.124;2023-02-27T20:10:31;11.10;;;4.27;;
75730;SDS011;64350;47.450;19.124;2023-02-27T20:12:57;13.30;;;4.50;;
75730;SDS011;64350;47.450;19.124;2023-02-27T20:15:22;15.17;;;6.00;;
75730;SDS011;64350;47.450;19.124;2023-02-27T20:17:50;13.23;;;6.63;;
75730;SDS011;64350;47.450;19.124;2023-02-27T20:20:15;13.27;;;6.25;;
75730;SDS011;64350;47.450;19.124;2023-02-27T20:22:43;13.65;;;5.90;;
75730;SDS011;64350;47.450;19.124;2023-02-27T20:25:09;10.00;;;4.03;;
75730;SDS011;64350;47.450;19.124;2023-02-27T20:27:35;13.57;;;5.28;;
75730;SDS011;64350;47.450;19.124;2023-02-27T20:30:01;9.25;;;3.87;;
75730;SDS011;64350;47.450;19.124;2023-02-27T20:32:26;9.27;;;4.17;;
75730;SDS011;64350;47.450;19.124;2023-02-27T20:34:51;15.03;;;6.40;;
75730;SDS011;64350;47.450;19.124;2023-02-27T20:37:17;12.30;;;5.47;;
75730;SDS011;64350;47.450;19.124;2023-02-27T20:39:42;12.27;;;5.95;;
75730;SDS011;64350;47.450;19.124;2023-02-27T20:42:12;12.37;;;5.20;;
75730;SDS011;64350;47.450;19.124;2023-02-27T20:44:38;12.65;;;5.72;;
75730;SDS011;64350;47.450;19.124;2023-02-27T20:47:03;11.80;;;6.15;;
75730;SDS011;64350;47.450;19.124;2023-02-27T20:49:29;13.57;;;5.63;;
75730;SDS011;64350;47.450;19.124;2023-02-27T20:51:54;12.57;;;5.90;;
75730;SDS011;64350;47.450;19.124;2023-02-27T20:54:21;16.15;;;6.68;;
75730;SDS011;64350;47.450;19.124;2023-02-27T20:56:47;11.90;;;6.40;;
75730;SDS011;64350;47.450;19.124;2023-02-27T20:59:15;14.35;;;6.30;;
75730;SDS011;64350;47.450;19.124;2023-02-27T21:01:43;13.25;;;5.25;;
75730;SDS011;64350;47.450;19.124;2023-02-27T21:04:16;13.30;;;5.72;;
75730;SDS011;64350;47.450;19.124;2023-02-27T21:07:06;13.27;;;5.83;;
75730;SDS011;64350;47.450;19.124;2023-02-27T21:09:35;15.50;;;6.40;;
75730;SDS011;64350;47.450;19.124;2023-02-27T21:12:02;13.13;;;5.60;;
75730;SDS011;64350;47.450;19.124;2023-02-27T21:14:29;13.55;;;6.53;;
75730;SDS011;64350;47.450;19.124;2023-02-27T21:16:55;12.73;;;6.82;;
75730;SDS011;64350;47.450;19.124;2023-02-27T21:19:21;14.67;;;6.13;;
75730;SDS011;64350;47.450;19.124;2023-02-27T21:21:46;13.77;;;6.03;;
75730;SDS011;64350;47.450;19.124;2023-02-27T21:24:11;13.80;;;6.37;;
75730;SDS011;64350;47.450;19.124;2023-02-27T21:26:38;12.37;;;6.00;;
75730;SDS011;64350;47.450;19.124;2023-02-27T21:29:08;14.40;;;6.93;;
75730;SDS011;64350;47.450;19.124;2023-02-27T21:31:35;14.20;;;6.22;;
75730;SDS011;64350;47.450;19.124;2023-02-27T21:34:02;11.63;;;6.43;;
75730;SDS011;64350;47.450;19.124;2023-02-27T21:36:31;12.90;;;5.85;;
75730;SDS011;64350;47.450;19.124;2023-02-27T21:38:58;15.10;;;5.95;;
75730;SDS011;64350;47.450;19.124;2023-02-27T21:41:25;12.43;;;6.47;;
75730;SDS011;64350;47.450;19.124;2023-02-27T21:43:50;11.90;;;5.57;;